sensor_id;sensor_type;location;lat;lon;timestamp;pressure;altitude;pressure_sealevel;temperature;humidity
63903;BME280;50072;50.678;13.938;2022-12-10T00:01:16;98484.91;;;2.05;80.50
63903;BME280;50072;50.678;13.938;2022-12-10T00:03:43;98482.28;;;2.05;80.86
63903;BME280;50072;50.678;13.938;2022-12-10T00:06:14;98484.09;;;2.01;80.81
63903;BME280;50072;50.678;13.938;2022-12-10T00:08:41;98488.47;;;2.04;81.30
63903;BME280;50072;50.678;13.938;2022-12-10T00:11:09;98489.34;;;2.01;81.24
63903;BME280;50072;50.678;13.938;2022-12-10T00:13:36;98483.19;;;2.02;81.20
63903;BME280;50072;50.678;13.938;2022-12-10T00:16:04;98490.19;;;2.05;81.70
63903;BME280;50072;50.678;13.938;2022-12-10T00:18:32;98491.88;;;2.12;81.37
63903;BME280;50072;50.678;13.938;2022-12-10T00:20:57;98487.53;;;2.06;81.46
63903;BME280;50072;50.678;13.938;2022-12-10T00:23:24;98490.16;;;2.08;81.21
63903;BME280;50072;50.678;13.938;2022-12-10T00:25:50;98496.31;;;2.10;80.69
63903;BME280;50072;50.678;13.938;2022-12-10T00:28:16;98502.50;;;2.06;81.34
63903;BME280;50072;50.678;13.938;2022-12-10T00:30:42;98491.91;;;2.09;81.15
63903;BME280;50072;50.678;13.938;2022-12-10T00:33:08;98498.00;;;2.16;81.15
63903;BME280;50072;50.678;13.938;2022-12-10T00:35:38;98498.84;;;2.22;81.53
63903;BME280;50072;50.678;13.938;2022-12-10T00:38:04;98490.03;;;2.20;81.18
63903;BME280;50072;50.678;13.938;2022-12-10T00:40:29;98493.50;;;2.26;80.83
63903;BME280;50072;50.678;13.938;2022-12-10T00:42:55;98491.81;;;2.20;80.97
63903;BME280;50072;50.678;13.938;2022-12-10T00:45:21;98496.13;;;2.27;81.30
63903;BME280;50072;50.678;13.938;2022-12-10T00:47:47;98494.41;;;2.24;80.85
63903;BME280;50072;50.678;13.938;2022-12-10T00:50:13;98501.44;;;2.26;80.86
63903;BME280;50072;50.678;13.938;2022-12-10T00:52:39;98500.59;;;2.20;80.77
63903;BME280;50072;50.678;13.938;2022-12-10T00:55:04;98494.50;;;2.14;81.41
63903;BME280;50072;50.678;13.938;2022-12-10T00:57:31;98503.28;;;2.16;81.38
63903;BME280;50072;50.678;13.938;2022-12-10T00:59:58;98502.44;;;2.12;81.29
63903;BME280;50072;50.678;13.938;2022-12-10T01:02:24;98503.31;;;2.13;81.55
63903;BME280;50072;50.678;13.938;2022-12-10T01:04:53;98507.72;;;2.15;81.76
63903;BME280;50072;50.678;13.938;2022-12-10T01:07:19;98498.09;;;2.10;81.32
63903;BME280;50072;50.678;13.938;2022-12-10T01:09:45;98500.72;;;2.08;81.34
63903;BME280;50072;50.678;13.938;2022-12-10T01:12:11;98501.66;;;2.04;81.53
63903;BME280;50072;50.678;13.938;2022-12-10T01:14:36;98501.59;;;2.09;81.30
63903;BME280;50072;50.678;13.938;2022-12-10T01:17:04;98508.66;;;2.10;81.45
63903;BME280;50072;50.678;13.938;2022-12-10T01:19:31;98511.19;;;2.17;81.56
63903;BME280;50072;50.678;13.938;2022-12-10T01:21:59;98507.63;;;2.21;81.41
63903;BME280;50072;50.678;13.938;2022-12-10T01:24:26;98512.88;;;2.24;81.86
63903;BME280;50072;50.678;13.938;2022-12-10T01:26:53;98520.00;;;2.16;81.18
63903;BME280;50072;50.678;13.938;2022-12-10T01:29:22;98515.63;;;2.15;81.59
63903;BME280;50072;50.678;13.938;2022-12-10T01:31:53;98516.47;;;2.17;81.43
63903;BME280;50072;50.678;13.938;2022-12-10T01:34:19;98515.63;;;2.15;81.33
63903;BME280;50072;50.678;13.938;2022-12-10T01:36:49;98516.50;;;2.14;81.57
63903;BME280;50072;50.678;13.938;2022-12-10T01:39:17;98516.53;;;2.11;81.80
63903;BME280;50072;50.678;13.938;2022-12-10T01:41:55;98526.28;;;2.04;82.26
63903;BME280;50072;50.678;13.938;2022-12-10T01:46:50;98523.72;;;1.97;81.91
63903;BME280;50072;50.678;13.938;2022-12-10T01:49:22;98522.00;;;1.91;82.00
63903;BME280;50072;50.678;13.938;2022-12-10T01:51:51;98524.56;;;1.99;81.41
63903;BME280;50072;50.678;13.938;2022-12-10T01:54:23;98520.13;;;2.01;81.45
63903;BME280;50072;50.678;13.938;2022-12-10T01:57:00;98521.84;;;2.05;81.69
63903;BME280;50072;50.678;13.938;2022-12-10T01:59:28;98520.00;;;2.15;81.08
63903;BME280;50072;50.678;13.938;2022-12-10T02:15:53;98514.72;;;2.16;80.40
63903;BME280;50072;50.678;13.938;2022-12-10T02:18:28;98516.44;;;2.20;80.46
63903;BME280;50072;50.678;13.938;2022-12-10T02:20:59;98508.56;;;2.17;80.42
63903;BME280;50072;50.678;13.938;2022-12-10T02:23:38;98516.41;;;2.23;80.65
63903;BME280;50072;50.678;13.938;2022-12-10T02:26:14;98511.13;;;2.23;80.18
63903;BME280;50072;50.678;13.938;2022-12-10T02:29:11;98522.56;;;2.24;80.31
63903;BME280;50072;50.678;13.938;2022-12-10T02:31:42;98517.31;;;2.19;80.88
63903;BME280;50072;50.678;13.938;2022-12-10T02:34:10;98513.84;;;2.16;80.80
63903;BME280;50072;50.678;13.938;2022-12-10T02:36:38;98513.94;;;2.05;81.10
63903;BME280;50072;50.678;13.938;2022-12-10T02:39:10;98512.22;;;1.99;81.09
63903;BME280;50072;50.678;13.938;2022-12-10T02:41:42;98516.56;;;2.05;81.56
63903;BME280;50072;50.678;13.938;2022-12-10T02:44:14;98513.13;;;1.98;81.79
63903;BME280;50072;50.678;13.938;2022-12-10T02:46:45;98518.44;;;1.97;81.99
63903;BME280;50072;50.678;13.938;2022-12-10T02:49:14;98519.34;;;1.89;82.51
63903;BME280;50072;50.678;13.938;2022-12-10T02:51:42;98533.44;;;1.90;82.15
63903;BME280;50072;50.678;13.938;2022-12-10T02:54:34;98531.63;;;1.94;81.95
63903;BME280;50072;50.678;13.938;2022-12-10T02:57:16;98531.63;;;1.98;81.84
63903;BME280;50072;50.678;13.938;2022-12-10T03:05:15;98537.75;;;1.99;82.72
63903;BME280;50072;50.678;13.938;2022-12-10T03:07:49;98541.28;;;1.98;82.28
63903;BME280;50072;50.678;13.938;2022-12-10T03:12:58;98551.81;;;1.98;83.48
63903;BME280;50072;50.678;13.938;2022-12-10T03:15:26;98550.09;;;1.94;83.01
63903;BME280;50072;50.678;13.938;2022-12-10T03:17:56;98547.50;;;1.90;83.69
63903;BME280;50072;50.678;13.938;2022-12-10T03:20:25;98548.34;;;1.96;82.81
63903;BME280;50072;50.678;13.938;2022-12-10T03:22:53;98556.16;;;2.05;82.61
63903;BME280;50072;50.678;13.938;2022-12-10T03:25:24;98557.03;;;2.09;82.39
63903;BME280;50072;50.678;13.938;2022-12-10T03:27:52;98554.41;;;2.07;82.33
63903;BME280;50072;50.678;13.938;2022-12-10T03:30:21;98557.03;;;2.07;82.57
63903;BME280;50072;50.678;13.938;2022-12-10T03:32:50;98560.56;;;2.06;82.55
63903;BME280;50072;50.678;13.938;2022-12-10T03:35:20;98555.28;;;2.06;82.88
63903;BME280;50072;50.678;13.938;2022-12-10T03:37:48;98549.16;;;1.99;82.31
63903;BME280;50072;50.678;13.938;2022-12-10T03:40:17;98555.31;;;2.03;83.86
63903;BME280;50072;50.678;13.938;2022-12-10T03:42:43;98547.38;;;2.04;82.83
63903;BME280;50072;50.678;13.938;2022-12-10T03:45:10;98547.47;;;1.94;83.00
63903;BME280;50072;50.678;13.938;2022-12-10T03:47:36;98545.66;;;1.99;83.09
63903;BME280;50072;50.678;13.938;2022-12-10T03:50:02;98546.53;;;1.99;83.37
63903;BME280;50072;50.678;13.938;2022-12-10T03:52:28;98549.13;;;2.07;82.37
63903;BME280;50072;50.678;13.938;2022-12-10T03:54:54;98546.44;;;2.10;82.10
63903;BME280;50072;50.678;13.938;2022-12-10T03:57:20;98550.03;;;2.04;82.06
63903;BME280;50072;50.678;13.938;2022-12-10T03:59:46;98545.63;;;2.03;82.71
63903;BME280;50072;50.678;13.938;2022-12-10T04:02:18;98555.34;;;2.00;82.13
63903;BME280;50072;50.678;13.938;2022-12-10T04:04:44;98541.25;;;2.04;81.48
63903;BME280;50072;50.678;13.938;2022-12-10T04:07:10;98545.66;;;2.00;82.15
63903;BME280;50072;50.678;13.938;2022-12-10T04:09:36;98549.25;;;1.93;81.83
63903;BME280;50072;50.678;13.938;2022-12-10T04:12:02;98547.47;;;1.92;82.75
63903;BME280;50072;50.678;13.938;2022-12-10T04:14:28;98543.09;;;1.93;82.43
63903;BME280;50072;50.678;13.938;2022-12-10T04:17:12;98558.09;;;1.86;83.04
63903;BME280;50072;50.678;13.938;2022-12-10T04:19:39;98556.28;;;1.93;83.48
63903;BME280;50072;50.678;13.938;2022-12-10T04:22:05;98544.81;;;1.94;83.27
63903;BME280;50072;50.678;13.938;2022-12-10T04:24:49;98544.81;;;1.95;83.70
63903;BME280;50072;50.678;13.938;2022-12-10T04:27:37;98536.88;;;2.00;83.65
63903;BME280;50072;50.678;13.938;2022-12-10T04:30:07;98542.97;;;2.03;83.26
63903;BME280;50072;50.678;13.938;2022-12-10T04:32:34;98527.16;;;2.02;83.02
63903;BME280;50072;50.678;13.938;2022-12-10T04:35:00;98538.66;;;1.95;82.94
63903;BME280;50072;50.678;13.938;2022-12-10T04:37:27;98540.47;;;1.91;83.13
63903;BME280;50072;50.678;13.938;2022-12-10T04:39:55;98542.25;;;1.87;83.17
63903;BME280;50072;50.678;13.938;2022-12-10T04:42:23;98540.50;;;1.86;83.53
63903;BME280;50072;50.678;13.938;2022-12-10T04:44:49;98535.19;;;1.88;83.55
63903;BME280;50072;50.678;13.938;2022-12-10T04:47:15;98532.53;;;1.93;83.35
63903;BME280;50072;50.678;13.938;2022-12-10T04:49:43;98525.41;;;2.01;82.55
63903;BME280;50072;50.678;13.938;2022-12-10T04:52:11;98527.19;;;1.99;82.42
63903;BME280;50072;50.678;13.938;2022-12-10T04:54:37;98518.41;;;1.98;82.32
63903;BME280;50072;50.678;13.938;2022-12-10T04:57:05;98525.53;;;1.88;82.38
63903;BME280;50072;50.678;13.938;2022-12-10T04:59:32;98531.72;;;1.84;82.50
63903;BME280;50072;50.678;13.938;2022-12-10T05:01:58;98533.47;;;1.84;82.41
63903;BME280;50072;50.678;13.938;2022-12-10T05:04:24;98530.88;;;1.79;81.95
63903;BME280;50072;50.678;13.938;2022-12-10T05:06:49;98535.25;;;1.82;82.95
63903;BME280;50072;50.678;13.938;2022-12-10T05:09:16;98531.72;;;1.86;82.82
63903;BME280;50072;50.678;13.938;2022-12-10T05:11:44;98524.66;;;1.91;81.88
63903;BME280;50072;50.678;13.938;2022-12-10T05:14:11;98517.63;;;1.84;81.00
63903;BME280;50072;50.678;13.938;2022-12-10T05:16:41;98526.44;;;1.86;81.21
63903;BME280;50072;50.678;13.938;2022-12-10T05:19:09;98520.31;;;1.79;81.14
63903;BME280;50072;50.678;13.938;2022-12-10T05:21:36;98523.88;;;1.78;81.45
63903;BME280;50072;50.678;13.938;2022-12-10T05:24:21;98526.53;;;1.73;81.36
63903;BME280;50072;50.678;13.938;2022-12-10T05:26:47;98532.66;;;1.77;81.18
63903;BME280;50072;50.678;13.938;2022-12-10T05:29:17;98528.28;;;1.73;80.84
63903;BME280;50072;50.678;13.938;2022-12-10T05:31:43;98543.25;;;1.74;81.36
63903;BME280;50072;50.678;13.938;2022-12-10T05:34:10;98535.38;;;1.65;80.85
63903;BME280;50072;50.678;13.938;2022-12-10T05:36:38;98544.16;;;1.70;81.28
63903;BME280;50072;50.678;13.938;2022-12-10T05:39:04;98541.50;;;1.70;81.60
63903;BME280;50072;50.678;13.938;2022-12-10T05:41:35;98545.88;;;1.71;81.33
63903;BME280;50072;50.678;13.938;2022-12-10T05:44:02;98546.78;;;1.70;81.02
63903;BME280;50072;50.678;13.938;2022-12-10T05:46:30;98554.72;;;1.68;81.28
63903;BME280;50072;50.678;13.938;2022-12-10T05:48:58;98553.78;;;1.74;80.46
63903;BME280;50072;50.678;13.938;2022-12-10T05:51:28;98554.72;;;1.68;81.21
63903;BME280;50072;50.678;13.938;2022-12-10T05:53:54;98560.91;;;1.63;81.75
63903;BME280;50072;50.678;13.938;2022-12-10T05:56:23;98558.28;;;1.61;81.16
63903;BME280;50072;50.678;13.938;2022-12-10T05:58:51;98561.78;;;1.62;81.60
63903;BME280;50072;50.678;13.938;2022-12-10T06:01:20;98558.25;;;1.64;81.61
63903;BME280;50072;50.678;13.938;2022-12-10T06:03:46;98567.06;;;1.62;81.64
63903;BME280;50072;50.678;13.938;2022-12-10T06:06:13;98566.22;;;1.60;81.38
63903;BME280;50072;50.678;13.938;2022-12-10T06:08:39;98562.69;;;1.58;81.83
63903;BME280;50072;50.678;13.938;2022-12-10T06:11:08;98556.50;;;1.62;82.02
63903;BME280;50072;50.678;13.938;2022-12-10T06:13:35;98553.03;;;1.60;81.74
63903;BME280;50072;50.678;13.938;2022-12-10T06:16:07;98559.19;;;1.59;82.19
63903;BME280;50072;50.678;13.938;2022-12-10T06:18:34;98560.94;;;1.60;82.17
63903;BME280;50072;50.678;13.938;2022-12-10T06:21:05;98564.47;;;1.51;82.55
63903;BME280;50072;50.678;13.938;2022-12-10T06:23:34;98560.09;;;1.53;82.70
63903;BME280;50072;50.678;13.938;2022-12-10T06:26:13;98566.25;;;1.50;82.69
63903;BME280;50072;50.678;13.938;2022-12-10T06:28:47;98569.78;;;1.46;82.63
63903;BME280;50072;50.678;13.938;2022-12-10T06:31:13;98575.94;;;1.45;82.96
63903;BME280;50072;50.678;13.938;2022-12-10T06:33:41;98574.16;;;1.50;82.45
63903;BME280;50072;50.678;13.938;2022-12-10T06:36:08;98581.22;;;1.50;82.26
63903;BME280;50072;50.678;13.938;2022-12-10T06:38:36;98580.28;;;1.52;82.31
63903;BME280;50072;50.678;13.938;2022-12-10T06:41:06;98584.72;;;1.49;82.14
63903;BME280;50072;50.678;13.938;2022-12-10T06:43:33;98582.97;;;1.46;82.35
63903;BME280;50072;50.678;13.938;2022-12-10T06:46:10;98582.06;;;1.50;82.04
63903;BME280;50072;50.678;13.938;2022-12-10T06:48:36;98585.56;;;1.55;81.62
63903;BME280;50072;50.678;13.938;2022-12-10T06:51:09;98585.56;;;1.55;81.06
63903;BME280;50072;50.678;13.938;2022-12-10T06:53:36;98587.31;;;1.57;81.62
63903;BME280;50072;50.678;13.938;2022-12-10T06:56:03;98586.44;;;1.58;81.52
63903;BME280;50072;50.678;13.938;2022-12-10T06:58:30;98586.47;;;1.53;81.27
63903;BME280;50072;50.678;13.938;2022-12-10T07:01:11;98585.53;;;1.59;81.93
63903;BME280;50072;50.678;13.938;2022-12-10T07:03:38;98587.31;;;1.57;81.95
63903;BME280;50072;50.678;13.938;2022-12-10T07:06:05;98592.69;;;1.43;82.15
63903;BME280;50072;50.678;13.938;2022-12-10T07:08:31;98593.50;;;1.51;82.13
63903;BME280;50072;50.678;13.938;2022-12-10T07:10:57;98585.53;;;1.59;82.48
63903;BME280;50072;50.678;13.938;2022-12-10T07:13:24;98585.53;;;1.59;82.31
63903;BME280;50072;50.678;13.938;2022-12-10T07:15:51;98593.44;;;1.60;82.16
63903;BME280;50072;50.678;13.938;2022-12-10T07:18:17;98591.75;;;1.50;82.08
63903;BME280;50072;50.678;13.938;2022-12-10T07:20:43;98592.69;;;1.43;82.38
63903;BME280;50072;50.678;13.938;2022-12-10T07:23:08;98597.03;;;1.47;82.31
63903;BME280;50072;50.678;13.938;2022-12-10T07:25:34;98595.22;;;1.60;81.73
63903;BME280;50072;50.678;13.938;2022-12-10T07:28:00;98597.81;;;1.66;80.93
63903;BME280;50072;50.678;13.938;2022-12-10T07:30:26;98596.97;;;1.59;81.68
63903;BME280;50072;50.678;13.938;2022-12-10T07:32:51;98594.28;;;1.64;83.09
63903;BME280;50072;50.678;13.938;2022-12-10T07:35:17;98598.72;;;1.62;82.73
63903;BME280;50072;50.678;13.938;2022-12-10T07:37:43;98599.59;;;1.58;83.49
63903;BME280;50072;50.678;13.938;2022-12-10T07:40:10;98604.03;;;1.55;83.83
63903;BME280;50072;50.678;13.938;2022-12-10T07:42:37;98589.06;;;1.58;83.90
63903;BME280;50072;50.678;13.938;2022-12-10T07:45:03;98596.91;;;1.70;83.18
63903;BME280;50072;50.678;13.938;2022-12-10T07:47:29;98598.59;;;1.79;81.94
63903;BME280;50072;50.678;13.938;2022-12-10T07:49:55;98597.69;;;1.84;81.82
63903;BME280;50072;50.678;13.938;2022-12-10T07:52:21;98607.38;;;1.81;81.84
63903;BME280;50072;50.678;13.938;2022-12-10T07:54:47;98610.91;;;1.80;81.64
63903;BME280;50072;50.678;13.938;2022-12-10T07:57:13;98608.25;;;1.81;82.63
63903;BME280;50072;50.678;13.938;2022-12-10T07:59:39;98607.34;;;1.84;82.54
63903;BME280;50072;50.678;13.938;2022-12-10T08:02:05;98608.16;;;1.94;83.79
63903;BME280;50072;50.678;13.938;2022-12-10T08:04:31;98602.88;;;1.97;83.76
63903;BME280;50072;50.678;13.938;2022-12-10T08:06:57;98601.97;;;1.96;82.14
63903;BME280;50072;50.678;13.938;2022-12-10T08:09:23;98601.16;;;1.86;82.09
63903;BME280;50072;50.678;13.938;2022-12-10T08:11:49;98604.69;;;1.88;82.62
63903;BME280;50072;50.678;13.938;2022-12-10T08:14:15;98599.47;;;1.79;81.46
63903;BME280;50072;50.678;13.938;2022-12-10T08:16:41;98605.59;;;1.84;82.51
63903;BME280;50072;50.678;13.938;2022-12-10T08:19:07;98604.66;;;1.92;82.57
63903;BME280;50072;50.678;13.938;2022-12-10T08:21:32;98605.44;;;2.04;81.35
63903;BME280;50072;50.678;13.938;2022-12-10T08:23:59;98606.22;;;2.17;81.32
63903;BME280;50072;50.678;13.938;2022-12-10T08:26:29;98613.22;;;2.21;80.40
63903;BME280;50072;50.678;13.938;2022-12-10T08:28:56;98621.16;;;2.21;80.98
63903;BME280;50072;50.678;13.938;2022-12-10T08:31:23;98616.69;;;2.30;80.13
63903;BME280;50072;50.678;13.938;2022-12-10T08:33:49;98624.59;;;2.31;80.10
63903;BME280;50072;50.678;13.938;2022-12-10T08:36:17;98626.31;;;2.35;80.13
63903;BME280;50072;50.678;13.938;2022-12-10T08:38:43;98623.59;;;2.43;79.76
63903;BME280;50072;50.678;13.938;2022-12-10T08:41:19;98632.41;;;2.42;79.64
63903;BME280;50072;50.678;13.938;2022-12-10T08:43:46;98628.81;;;2.49;79.73
63903;BME280;50072;50.678;13.938;2022-12-10T08:46:14;98625.25;;;2.53;78.54
63903;BME280;50072;50.678;13.938;2022-12-10T08:48:40;98633.97;;;2.62;77.47
63903;BME280;50072;50.678;13.938;2022-12-10T08:51:07;98638.25;;;2.73;78.03
63903;BME280;50072;50.678;13.938;2022-12-10T08:53:34;98644.34;;;2.82;77.19
63903;BME280;50072;50.678;13.938;2022-12-10T08:56:01;98638.13;;;2.86;76.75
63903;BME280;50072;50.678;13.938;2022-12-10T08:58:27;98645.13;;;2.91;75.44
63903;BME280;50072;50.678;13.938;2022-12-10T09:00:53;98644.25;;;2.92;76.06
63903;BME280;50072;50.678;13.938;2022-12-10T09:03:18;98649.41;;;3.02;75.10
63903;BME280;50072;50.678;13.938;2022-12-10T09:05:44;98650.34;;;2.96;74.87
63903;BME280;50072;50.678;13.938;2022-12-10T09:08:12;98660.22;;;2.80;75.92
63903;BME280;50072;50.678;13.938;2022-12-10T09:10:45;98670.00;;;2.70;76.14
63903;BME280;50072;50.678;13.938;2022-12-10T09:13:11;98663.91;;;2.61;76.79
63903;BME280;50072;50.678;13.938;2022-12-10T09:15:37;98663.09;;;2.57;76.94
63903;BME280;50072;50.678;13.938;2022-12-10T09:18:03;98663.03;;;2.62;76.67
63903;BME280;50072;50.678;13.938;2022-12-10T09:20:31;98661.09;;;2.79;74.93
63903;BME280;50072;50.678;13.938;2022-12-10T09:22:57;98653.97;;;2.89;75.15
63903;BME280;50072;50.678;13.938;2022-12-10T09:25:24;98653.91;;;2.95;74.61
63903;BME280;50072;50.678;13.938;2022-12-10T09:27:49;98660.88;;;3.04;75.08
63903;BME280;50072;50.678;13.938;2022-12-10T09:30:15;98657.19;;;3.17;74.19
63903;BME280;50072;50.678;13.938;2022-12-10T09:32:42;98659.81;;;3.17;72.49
63903;BME280;50072;50.678;13.938;2022-12-10T09:35:10;98650.16;;;3.13;73.97
63903;BME280;50072;50.678;13.938;2022-12-10T09:37:36;98656.28;;;3.18;74.15
63903;BME280;50072;50.678;13.938;2022-12-10T09:40:02;98650.97;;;3.21;74.31
63903;BME280;50072;50.678;13.938;2022-12-10T09:42:50;98646.53;;;3.23;74.74
63903;BME280;50072;50.678;13.938;2022-12-10T09:45:20;98646.50;;;3.26;73.76
63903;BME280;50072;50.678;13.938;2022-12-10T09:48:04;98647.44;;;3.22;72.59
63903;BME280;50072;50.678;13.938;2022-12-10T09:50:51;98646.50;;;3.28;72.31
63903;BME280;50072;50.678;13.938;2022-12-10T09:53:20;98647.25;;;3.38;72.48
63903;BME280;50072;50.678;13.938;2022-12-10T09:55:48;98647.06;;;3.52;72.42
63903;BME280;50072;50.678;13.938;2022-12-10T09:58:23;98643.50;;;3.54;72.16
63903;BME280;50072;50.678;13.938;2022-12-10T10:00:58;98642.44;;;3.68;69.94
63903;BME280;50072;50.678;13.938;2022-12-10T10:03:25;98635.31;;;3.73;69.67
63903;BME280;50072;50.678;13.938;2022-12-10T10:05:53;98635.25;;;3.77;70.54
63903;BME280;50072;50.678;13.938;2022-12-10T10:08:28;98629.72;;;3.93;69.71
63903;BME280;50072;50.678;13.938;2022-12-10T10:10:55;98633.25;;;3.93;68.96
63903;BME280;50072;50.678;13.938;2022-12-10T10:13:32;98632.28;;;3.97;67.87
63903;BME280;50072;50.678;13.938;2022-12-10T10:16:13;98625.06;;;4.09;70.39
63903;BME280;50072;50.678;13.938;2022-12-10T10:18:46;98631.78;;;4.30;68.51
63903;BME280;50072;50.678;13.938;2022-12-10T10:21:23;98622.94;;;4.32;67.49
63903;BME280;50072;50.678;13.938;2022-12-10T10:23:49;98626.63;;;4.22;66.84
63903;BME280;50072;50.678;13.938;2022-12-10T10:26:16;98628.34;;;4.26;66.22
63903;BME280;50072;50.678;13.938;2022-12-10T10:28:43;98622.19;;;4.23;65.86
63903;BME280;50072;50.678;13.938;2022-12-10T10:31:22;98627.50;;;4.23;66.59
63903;BME280;50072;50.678;13.938;2022-12-10T10:33:53;98629.44;;;4.11;65.70
63903;BME280;50072;50.678;13.938;2022-12-10T10:36:24;98631.31;;;4.06;65.49
63903;BME280;50072;50.678;13.938;2022-12-10T10:38:50;98634.22;;;3.86;65.08
63903;BME280;50072;50.678;13.938;2022-12-10T10:41:18;98634.38;;;3.77;65.75
63903;BME280;50072;50.678;13.938;2022-12-10T10:43:44;98631.88;;;3.66;66.48
63903;BME280;50072;50.678;13.938;2022-12-10T10:46:14;98628.41;;;3.62;65.16
63903;BME280;50072;50.678;13.938;2022-12-10T10:48:40;98624.06;;;3.57;64.47
63903;BME280;50072;50.678;13.938;2022-12-10T10:56:13;98636.97;;;3.80;64.00
63903;BME280;50072;50.678;13.938;2022-12-10T11:01:18;98640.19;;;4.02;63.17
63903;BME280;50072;50.678;13.938;2022-12-10T11:03:57;98629.09;;;4.33;62.09
63903;BME280;50072;50.678;13.938;2022-12-10T11:06:25;98618.94;;;4.58;61.55
63903;BME280;50072;50.678;13.938;2022-12-10T11:08:55;98623.41;;;5.05;59.19
63903;BME280;50072;50.678;13.938;2022-12-10T11:11:31;98614.47;;;6.31;58.53
63903;BME280;50072;50.678;13.938;2022-12-10T11:14:24;98616.19;;;8.20;51.26
63903;BME280;50072;50.678;13.938;2022-12-10T11:17:00;98611.97;;;8.93;48.88
63903;BME280;50072;50.678;13.938;2022-12-10T11:19:26;98617.66;;;10.26;46.65
63903;BME280;50072;50.678;13.938;2022-12-10T11:21:52;98605.63;;;10.59;42.75
63903;BME280;50072;50.678;13.938;2022-12-10T11:24:19;98612.78;;;9.21;45.39
63903;BME280;50072;50.678;13.938;2022-12-10T11:26:55;98605.31;;;8.26;49.02
63903;BME280;50072;50.678;13.938;2022-12-10T11:35:13;98609.47;;;7.19;50.87
63903;BME280;50072;50.678;13.938;2022-12-10T11:37:53;98611.75;;;7.01;50.64
63903;BME280;50072;50.678;13.938;2022-12-10T11:40:48;98609.09;;;7.01;50.03
63903;BME280;50072;50.678;13.938;2022-12-10T11:54:14;98619.88;;;5.87;55.04
63903;BME280;50072;50.678;13.938;2022-12-10T12:08:03;98626.44;;;4.84;56.38
63903;BME280;50072;50.678;13.938;2022-12-10T12:14:08;98624.25;;;4.58;57.81
63903;BME280;50072;50.678;13.938;2022-12-10T12:16:58;98616.41;;;4.52;58.25
63903;BME280;50072;50.678;13.938;2022-12-10T12:19:46;98613.03;;;4.44;59.67
63903;BME280;50072;50.678;13.938;2022-12-10T12:22:18;98605.94;;;4.44;60.70
63903;BME280;50072;50.678;13.938;2022-12-10T12:24:47;98601.41;;;4.51;60.24
63903;BME280;50072;50.678;13.938;2022-12-10T12:30:05;98606.91;;;4.39;60.27
63903;BME280;50072;50.678;13.938;2022-12-10T12:35:22;98607.97;;;4.28;59.87
63903;BME280;50072;50.678;13.938;2022-12-10T12:38:01;98608.88;;;4.27;60.60
63903;BME280;50072;50.678;13.938;2022-12-10T12:40:30;98601.97;;;4.19;60.29
63903;BME280;50072;50.678;13.938;2022-12-10T12:43:03;98602.00;;;4.17;61.36
63903;BME280;50072;50.678;13.938;2022-12-10T12:45:34;98603.66;;;4.23;60.93
63903;BME280;50072;50.678;13.938;2022-12-10T12:53:14;98598.44;;;4.18;60.82
63903;BME280;50072;50.678;13.938;2022-12-10T12:59:04;98597.63;;;4.13;61.72
63903;BME280;50072;50.678;13.938;2022-12-10T13:02:02;98601.28;;;4.06;61.79
63903;BME280;50072;50.678;13.938;2022-12-10T13:04:33;98599.66;;;3.97;62.49
63903;BME280;50072;50.678;13.938;2022-12-10T13:09:49;98602.53;;;3.82;64.02
63903;BME280;50072;50.678;13.938;2022-12-10T13:12:26;98608.53;;;3.94;63.68
63903;BME280;50072;50.678;13.938;2022-12-10T13:15:26;98606.03;;;3.85;64.10
63903;BME280;50072;50.678;13.938;2022-12-10T13:20:55;98609.56;;;3.84;63.96
63903;BME280;50072;50.678;13.938;2022-12-10T13:23:53;98604.44;;;3.75;63.95
63903;BME280;50072;50.678;13.938;2022-12-10T13:26:27;98611.63;;;3.63;64.56
63903;BME280;50072;50.678;13.938;2022-12-10T13:29:11;98613.56;;;3.52;65.34
63903;BME280;50072;50.678;13.938;2022-12-10T13:31:38;98617.16;;;3.47;64.75
63903;BME280;50072;50.678;13.938;2022-12-10T13:34:19;98616.28;;;3.44;65.30
63903;BME280;50072;50.678;13.938;2022-12-10T13:39:21;98628.00;;;3.26;64.07
63903;BME280;50072;50.678;13.938;2022-12-10T13:45:01;98613.19;;;3.10;64.91
63903;BME280;50072;50.678;13.938;2022-12-10T13:50:17;98624.84;;;2.93;67.01
63903;BME280;50072;50.678;13.938;2022-12-10T13:55:35;98624.25;;;2.67;68.55
63903;BME280;50072;50.678;13.938;2022-12-10T13:58:23;98633.16;;;2.58;70.18
63903;BME280;50072;50.678;13.938;2022-12-10T14:01:03;98632.25;;;2.57;69.44
63903;BME280;50072;50.678;13.938;2022-12-10T14:06:13;98640.25;;;2.50;70.59
63903;BME280;50072;50.678;13.938;2022-12-10T14:08:49;98643.88;;;2.41;71.42
63903;BME280;50072;50.678;13.938;2022-12-10T14:11:21;98647.44;;;2.34;71.73
63903;BME280;50072;50.678;13.938;2022-12-10T14:13:52;98662.47;;;2.26;72.26
63903;BME280;50072;50.678;13.938;2022-12-10T14:16:21;98668.66;;;2.21;73.07
63903;BME280;50072;50.678;13.938;2022-12-10T14:18:57;98664.34;;;2.13;74.40
63903;BME280;50072;50.678;13.938;2022-12-10T14:21:25;98673.19;;;2.04;74.46
63903;BME280;50072;50.678;13.938;2022-12-10T14:23:52;98672.31;;;2.00;75.63
63903;BME280;50072;50.678;13.938;2022-12-10T14:26:27;98687.28;;;2.00;75.80
63903;BME280;50072;50.678;13.938;2022-12-10T14:28:59;98681.16;;;1.96;76.25
63903;BME280;50072;50.678;13.938;2022-12-10T14:31:43;98678.50;;;1.95;76.70
63903;BME280;50072;50.678;13.938;2022-12-10T14:34:14;98673.25;;;1.93;76.66
63903;BME280;50072;50.678;13.938;2022-12-10T14:36:47;98656.66;;;1.77;77.24
63903;BME280;50072;50.678;13.938;2022-12-10T14:39:16;98669.81;;;1.79;77.50
63903;BME280;50072;50.678;13.938;2022-12-10T14:41:43;98666.34;;;1.72;78.40
63903;BME280;50072;50.678;13.938;2022-12-10T14:44:12;98669.84;;;1.69;78.63
63903;BME280;50072;50.678;13.938;2022-12-10T14:46:39;98676.91;;;1.67;78.66
63903;BME280;50072;50.678;13.938;2022-12-10T14:49:08;98671.69;;;1.63;79.41
63903;BME280;50072;50.678;13.938;2022-12-10T14:51:39;98683.94;;;1.70;78.86